createdAt,value
2023-04-11T00:01:50.065Z,2.17
2023-04-11T00:03:53.161Z,1.90
2023-04-11T00:05:54.760Z,2.30
2023-04-11T00:07:56.234Z,2.10
2023-04-11T00:09:57.751Z,1.85
2023-04-11T00:11:59.302Z,2.00
2023-04-11T00:14:00.755Z,2.05
2023-04-11T00:16:03.399Z,1.75
2023-04-11T00:18:06.646Z,2.38
2023-04-11T00:20:10.887Z,2.13
2023-04-11T00:22:13.820Z,1.80
2023-04-11T00:24:15.517Z,1.75
2023-04-11T00:26:17.053Z,1.80
2023-04-11T00:28:18.492Z,2.08
2023-04-11T00:30:19.976Z,2.65
2023-04-11T00:32:21.642Z,2.08
2023-04-11T00:34:23.081Z,2.13
2023-04-11T00:36:24.821Z,2.25
2023-04-11T00:38:26.545Z,2.58
2023-04-11T00:40:28.002Z,2.15
2023-04-11T00:42:29.470Z,2.22
2023-04-11T00:44:31.141Z,2.03
2023-04-11T00:46:33.663Z,2.17
2023-04-11T00:48:35.932Z,2.35
2023-04-11T00:50:41.231Z,1.67
2023-04-11T00:52:46.213Z,2.10
2023-04-11T00:54:48.259Z,2.10
2023-04-11T00:56:51.126Z,2.22
2023-04-11T00:58:53.217Z,2.20
2023-04-11T01:00:55.211Z,2.03
2023-04-11T01:02:56.818Z,2.50
2023-04-11T01:05:00.692Z,2.05
2023-04-11T01:07:06.312Z,2.22
2023-04-11T01:09:07.981Z,2.35
2023-04-11T01:11:10.994Z,2.10
2023-04-11T01:13:12.994Z,2.30
2023-04-11T01:15:15.003Z,2.42
2023-04-11T01:17:16.692Z,2.80
2023-04-11T01:19:23.489Z,2.97
2023-04-11T01:21:27.093Z,2.25
2023-04-11T01:23:28.828Z,2.45
2023-04-11T01:25:30.436Z,2.67
2023-04-11T01:27:34.037Z,2.50
2023-04-11T01:29:35.607Z,0.80
2023-04-11T01:31:37.103Z,0.57
2023-04-11T01:33:38.728Z,0.65
2023-04-11T01:35:40.572Z,0.60
2023-04-11T01:37:42.145Z,0.60
2023-04-11T01:39:43.626Z,0.60
2023-04-11T01:41:46.043Z,0.40
2023-04-11T01:43:47.855Z,0.50
2023-04-11T01:45:49.316Z,0.60
2023-04-11T01:47:52.009Z,0.80
2023-04-11T01:49:53.729Z,0.45
2023-04-11T01:51:55.804Z,0.50
2023-04-11T01:53:57.310Z,0.40
2023-04-11T01:55:58.961Z,0.38
2023-04-11T01:58:00.557Z,0.55
2023-04-11T02:00:02.101Z,0.40
2023-04-11T02:02:03.833Z,0.40
2023-04-11T02:04:05.652Z,0.30
2023-04-11T02:06:07.383Z,0.32
2023-04-11T02:08:08.904Z,0.38
2023-04-11T02:10:11.138Z,0.40
2023-04-11T02:12:12.642Z,0.60
2023-04-11T02:14:14.463Z,0.50
2023-04-11T02:16:17.997Z,0.50
2023-04-11T02:18:19.816Z,0.30
2023-04-11T02:20:24.232Z,0.50
2023-04-11T02:22:25.948Z,0.60
2023-04-11T02:24:30.501Z,0.60
2023-04-11T02:26:32.010Z,0.50
2023-04-11T02:28:33.533Z,0.50
2023-04-11T02:30:35.019Z,0.38
2023-04-11T02:32:40.416Z,0.43
2023-04-11T02:34:42.671Z,0.40
2023-04-11T02:36:45.790Z,0.40
2023-04-11T02:38:47.302Z,0.50
2023-04-11T02:40:48.804Z,0.40
2023-04-11T02:42:50.351Z,0.60
2023-04-11T02:44:55.505Z,0.30
2023-04-11T02:46:59.208Z,0.60
2023-04-11T02:49:00.676Z,0.43
2023-04-11T02:51:02.211Z,0.40
2023-04-11T02:53:03.658Z,0.80
2023-04-11T02:55:06.178Z,0.70
2023-04-11T02:57:07.692Z,0.50
2023-04-11T02:59:09.240Z,0.63
2023-04-11T03:01:12.008Z,0.60
2023-04-11T03:03:14.622Z,0.60
2023-04-11T03:05:16.292Z,0.70
2023-04-11T03:07:17.736Z,0.60
2023-04-11T03:09:19.955Z,0.50
2023-04-11T03:11:21.857Z,1.23
2023-04-11T03:13:23.365Z,0.65
2023-04-11T03:15:24.849Z,0.60
2023-04-11T03:17:26.340Z,1.15
2023-04-11T03:19:28.377Z,0.47
2023-04-11T03:21:31.544Z,0.60
2023-04-11T03:23:33.074Z,0.70
2023-04-11T03:25:34.561Z,0.80
2023-04-11T03:27:36.156Z,0.65
2023-04-11T03:29:37.658Z,0.63
2023-04-11T03:31:39.177Z,0.98
2023-04-11T03:33:40.779Z,0.93
2023-04-11T03:35:42.254Z,0.75
2023-04-11T03:37:43.749Z,0.98
2023-04-11T03:39:45.245Z,1.10
2023-04-11T03:41:46.750Z,0.98
2023-04-11T03:43:48.276Z,1.13
2023-04-11T03:45:51.624Z,1.00
2023-04-11T03:47:53.156Z,1.00
2023-04-11T03:49:54.651Z,1.13
2023-04-11T03:51:56.224Z,1.58
2023-04-11T03:53:57.809Z,1.35
2023-04-11T03:55:59.290Z,1.30
2023-04-11T03:58:00.937Z,1.00
2023-04-11T04:00:05.384Z,1.38
2023-04-11T04:02:07.047Z,0.80
2023-04-11T04:04:08.838Z,0.95
2023-04-11T04:06:10.796Z,1.60
2023-04-11T04:08:13.605Z,1.17
2023-04-11T04:10:15.381Z,1.60
2023-04-11T04:12:19.783Z,2.03
2023-04-11T04:14:21.278Z,1.88
2023-04-11T04:16:22.869Z,1.38
2023-04-11T04:18:24.434Z,1.50
2023-04-11T04:20:25.990Z,1.42
2023-04-11T04:22:29.749Z,1.40
2023-04-11T04:24:31.952Z,1.75
2023-04-11T04:26:33.486Z,1.40
2023-04-11T04:28:34.959Z,1.30
2023-04-11T04:30:38.180Z,1.30
2023-04-11T04:32:41.189Z,1.38
2023-04-11T04:34:49.240Z,1.60
2023-04-11T04:36:50.787Z,1.58
2023-04-11T04:38:52.525Z,1.70
2023-04-11T04:40:54.823Z,1.27
2023-04-11T04:42:58.992Z,1.48
2023-04-11T04:45:00.829Z,1.13
2023-04-11T04:47:02.290Z,1.52
2023-04-11T04:49:05.861Z,1.70
2023-04-11T04:51:07.812Z,1.85
2023-04-11T04:53:09.391Z,1.60
2023-04-11T04:55:11.340Z,1.20
2023-04-11T04:57:12.833Z,1.73
2023-04-11T04:59:16.128Z,1.20
2023-04-11T05:01:17.698Z,1.10
2023-04-11T05:03:20.931Z,1.15
2023-04-11T05:05:22.560Z,1.05
2023-04-11T05:07:24.072Z,1.58
2023-04-11T05:09:25.970Z,1.00
2023-04-11T05:11:28.669Z,1.80
2023-04-11T05:13:34.012Z,2.58
2023-04-11T05:15:35.494Z,5.90
2023-04-11T05:17:37.346Z,1.63
2023-04-11T05:19:38.834Z,1.60
2023-04-11T05:21:40.555Z,1.80
2023-04-11T05:23:42.066Z,1.80
2023-04-11T05:25:43.532Z,1.98
2023-04-11T05:27:45.029Z,1.42
2023-04-11T05:29:46.513Z,1.50
2023-04-11T05:31:47.993Z,1.70
2023-04-11T05:33:49.505Z,1.88
2023-04-11T05:35:51.882Z,1.63
2023-04-11T05:37:53.471Z,2.08
2023-04-11T05:39:56.352Z,1.73
2023-04-11T05:41:58.088Z,2.03
2023-04-11T05:43:59.641Z,1.50
2023-04-11T05:46:01.198Z,1.20
2023-04-11T05:48:04.142Z,1.10
2023-04-11T05:50:07.297Z,1.35
2023-04-11T05:52:08.875Z,1.20
2023-04-11T05:54:10.589Z,1.58
2023-04-11T05:56:12.932Z,1.48
2023-04-11T05:58:14.619Z,1.98
2023-04-11T06:00:17.178Z,2.25
2023-04-11T06:02:18.964Z,1.83
2023-04-11T06:04:21.069Z,2.03
2023-04-11T06:06:23.468Z,1.85
2023-04-11T06:08:24.985Z,1.92
2023-04-11T06:10:27.019Z,2.95
2023-04-11T06:12:28.711Z,2.50
2023-04-11T06:14:30.349Z,3.30
2023-04-11T06:16:33.511Z,3.42
2023-04-11T06:18:34.997Z,2.72
2023-04-11T06:20:36.499Z,3.65
2023-04-11T06:22:40.026Z,4.60
2023-04-11T06:24:42.742Z,3.67
2023-04-11T06:26:44.744Z,4.45
2023-04-11T06:28:46.223Z,4.30
2023-04-11T06:30:47.709Z,3.60
2023-04-11T06:32:49.266Z,3.47
2023-04-11T06:34:51.316Z,3.80
2023-04-11T06:36:52.816Z,3.10
2023-04-11T06:38:54.353Z,3.50
2023-04-11T06:40:56.457Z,3.25
2023-04-11T06:43:00.147Z,3.17
2023-04-11T06:45:01.933Z,3.38
2023-04-11T06:47:04.046Z,3.17
2023-04-11T06:49:07.279Z,2.40
2023-04-11T06:51:10.402Z,2.67
2023-04-11T06:53:11.913Z,3.45
2023-04-11T06:55:15.474Z,2.80
2023-04-11T06:57:17.971Z,2.85
2023-04-11T06:59:20.429Z,2.60
2023-04-11T07:01:25.512Z,3.03
2023-04-11T07:03:27.570Z,3.17
2023-04-11T07:05:29.157Z,3.38
2023-04-11T07:07:31.386Z,2.75
2023-04-11T07:09:32.916Z,2.60
2023-04-11T07:11:34.445Z,3.03
2023-04-11T07:13:35.938Z,2.47
2023-04-11T07:15:37.427Z,2.65
2023-04-11T07:17:38.925Z,2.75
2023-04-11T07:19:40.710Z,2.30
2023-04-11T07:21:42.887Z,3.58
2023-04-11T07:23:44.762Z,2.63
2023-04-11T07:25:46.227Z,2.83
2023-04-11T07:27:49.212Z,1.92
2023-04-11T07:29:50.692Z,2.28
2023-04-11T07:31:53.159Z,2.95
2023-04-11T07:33:55.032Z,2.50
2023-04-11T07:35:56.793Z,3.10
2023-04-11T07:37:58.352Z,2.78
2023-04-11T07:39:59.921Z,2.70
2023-04-11T07:42:01.905Z,2.92
2023-04-11T07:44:06.539Z,3.00
2023-04-11T07:46:08.069Z,2.85
2023-04-11T07:48:09.568Z,2.25
2023-04-11T07:50:11.351Z,2.70
2023-04-11T07:52:14.156Z,2.67
2023-04-11T07:54:16.683Z,2.70
2023-04-11T07:56:18.147Z,1.98
2023-04-11T07:58:19.764Z,2.20
2023-04-11T08:00:22.874Z,2.20
2023-04-11T08:02:24.661Z,2.60
2023-04-11T08:04:26.647Z,2.42
2023-04-11T08:06:29.131Z,2.05
2023-04-11T08:08:30.769Z,2.42
2023-04-11T08:10:32.858Z,2.40
2023-04-11T08:12:34.419Z,1.75
2023-04-11T08:14:36.657Z,2.25
2023-04-11T08:16:38.303Z,1.90
2023-04-11T08:18:42.448Z,2.17
2023-04-11T08:20:44.168Z,2.35
2023-04-11T08:22:46.768Z,1.80
2023-04-11T08:24:48.302Z,1.90
2023-04-11T08:26:49.813Z,1.50
2023-04-11T08:28:51.355Z,1.45
2023-04-11T08:30:55.301Z,2.15
2023-04-11T08:32:56.876Z,1.70
2023-04-11T08:34:58.421Z,2.05
2023-04-11T08:36:59.961Z,1.50
2023-04-11T08:39:01.448Z,1.70
2023-04-11T08:41:03.049Z,1.70
2023-04-11T08:43:10.125Z,1.00
2023-04-11T08:45:12.247Z,0.73
2023-04-11T08:47:15.975Z,0.90
2023-04-11T08:49:17.712Z,1.00
2023-04-11T08:51:23.775Z,1.77
2023-04-11T08:53:27.006Z,1.20
2023-04-11T08:55:28.832Z,1.17
2023-04-11T08:57:34.898Z,1.30
2023-04-11T08:59:36.510Z,1.25
2023-04-11T09:01:40.745Z,1.20
2023-04-11T09:03:52.165Z,1.73
2023-04-11T09:05:54.445Z,1.20
2023-04-11T09:07:57.328Z,1.60
2023-04-11T09:10:18.317Z,1.25
2023-04-11T09:12:25.791Z,1.58
2023-04-11T09:14:28.600Z,1.27
2023-04-11T09:16:30.168Z,2.00
2023-04-11T09:18:33.400Z,1.33
2023-04-11T09:20:34.952Z,2.03
2023-04-11T09:22:36.577Z,1.20
2023-04-11T09:24:38.261Z,0.68
2023-04-11T09:26:39.720Z,1.13
2023-04-11T09:28:53.721Z,0.98
2023-04-11T09:30:56.422Z,0.80
2023-04-11T09:32:58.699Z,1.10
2023-04-11T09:35:15.741Z,0.80
2023-04-11T09:37:17.358Z,1.35
2023-04-11T09:39:19.815Z,1.23
2023-04-11T09:41:36.368Z,0.90
2023-04-11T09:43:51.978Z,1.00
2023-04-11T09:46:10.570Z,0.82
2023-04-11T09:48:13.026Z,1.08
2023-04-11T09:50:15.638Z,1.73
2023-04-11T09:52:18.454Z,0.80
2023-04-11T09:54:23.030Z,1.20
2023-04-11T09:56:26.576Z,1.05
2023-04-11T09:58:31.604Z,0.77
2023-04-11T10:00:33.515Z,0.60
2023-04-11T10:02:35.152Z,0.50
2023-04-11T10:04:38.421Z,0.70
2023-04-11T10:06:57.603Z,1.08
2023-04-11T10:09:12.816Z,1.13
2023-04-11T10:11:14.661Z,1.10
2023-04-11T10:13:38.784Z,1.05
2023-04-11T10:16:09.051Z,1.10
2023-04-11T10:18:12.539Z,1.58
2023-04-11T10:20:39.072Z,1.42
2023-04-11T10:22:40.571Z,1.33
2023-04-11T10:25:20.885Z,1.20
2023-04-11T10:27:47.475Z,1.35
2023-04-11T10:29:51.544Z,1.20
2023-04-11T10:32:12.709Z,0.70
2023-04-11T10:34:14.719Z,0.95
2023-04-11T10:36:16.218Z,0.70
2023-04-11T10:38:48.775Z,0.95
2023-04-11T10:41:19.151Z,0.88
2023-04-11T10:43:21.637Z,1.00
2023-04-11T10:45:26.958Z,0.93
2023-04-11T10:47:29.476Z,0.73
2023-04-11T10:49:34.934Z,1.23
2023-04-11T10:51:36.577Z,0.95
2023-04-11T10:53:38.492Z,1.15
2023-04-11T10:55:48.629Z,0.90
2023-04-11T10:58:09.784Z,0.85
2023-04-11T11:00:14.465Z,1.48
2023-04-11T11:02:16.833Z,1.40
2023-04-11T11:04:18.825Z,1.00
2023-04-11T11:06:21.326Z,1.20
2023-04-11T11:08:38.022Z,0.85
2023-04-11T11:10:41.989Z,0.88
2023-04-11T11:12:54.653Z,0.80
2023-04-11T11:14:56.218Z,0.93
2023-04-11T11:16:57.782Z,0.75
2023-04-11T11:18:59.606Z,0.93
2023-04-11T11:21:01.372Z,0.57
2023-04-11T11:23:05.039Z,0.50
2023-04-11T11:25:09.786Z,0.95
2023-04-11T11:27:22.513Z,0.57
2023-04-11T11:29:50.888Z,0.65
2023-04-11T11:31:53.382Z,0.70
2023-04-11T11:33:58.287Z,0.80
2023-04-11T11:36:07.329Z,0.50
2023-04-11T11:38:09.039Z,1.05
2023-04-11T11:40:14.132Z,0.88
2023-04-11T11:42:15.978Z,1.02
2023-04-11T11:44:30.790Z,0.60
2023-04-11T11:46:35.661Z,0.50
2023-04-11T11:48:37.219Z,0.85
2023-04-11T11:50:38.694Z,0.50
2023-04-11T11:52:43.420Z,0.82
2023-04-11T11:54:46.461Z,0.77
2023-04-11T11:56:52.765Z,1.20
2023-04-11T11:58:54.360Z,1.33
2023-04-11T12:00:56.218Z,0.82
2023-04-11T12:02:59.846Z,0.70
2023-04-11T12:05:05.034Z,0.77
2023-04-11T12:07:11.412Z,0.90
2023-04-11T12:09:13.163Z,0.50
2023-04-11T12:11:15.834Z,0.63
2023-04-11T12:13:23.445Z,0.70
2023-04-11T12:15:25.093Z,0.82
2023-04-11T12:17:33.555Z,0.70
2023-04-11T12:19:36.332Z,0.55
2023-04-11T12:21:37.837Z,0.57
2023-04-11T12:23:39.293Z,0.60
2023-04-11T12:25:41.165Z,1.00
2023-04-11T12:27:44.410Z,0.68
2023-04-11T12:29:46.737Z,0.70
2023-04-11T12:31:48.713Z,1.10
2023-04-11T12:33:50.277Z,0.38
2023-04-11T12:35:51.764Z,0.40
2023-04-11T12:37:53.271Z,0.40
2023-04-11T12:39:54.903Z,0.55
2023-04-11T12:41:56.450Z,0.60
2023-04-11T12:44:01.537Z,0.40
2023-04-11T12:46:03.022Z,0.55
2023-04-11T12:48:04.773Z,0.65
2023-04-11T12:50:07.214Z,0.90
2023-04-11T12:52:09.280Z,0.38
2023-04-11T12:54:10.766Z,0.50
2023-04-11T12:56:12.224Z,0.50
2023-04-11T12:58:13.707Z,0.50
2023-04-11T13:00:16.632Z,0.20
2023-04-11T13:02:22.130Z,0.63
2023-04-11T13:04:23.915Z,0.43
2023-04-11T13:06:26.035Z,0.30
2023-04-11T13:08:28.386Z,0.32
2023-04-11T13:10:29.938Z,0.38
2023-04-11T13:12:31.561Z,0.63
2023-04-11T13:14:33.135Z,0.30
2023-04-11T13:16:34.646Z,0.47
2023-04-11T13:18:36.115Z,0.50
2023-04-11T13:20:37.604Z,0.50
2023-04-11T13:22:41.163Z,0.40
2023-04-11T13:24:42.669Z,0.40
2023-04-11T13:26:45.037Z,0.35
2023-04-11T13:28:46.637Z,0.55
2023-04-11T13:30:48.158Z,0.43
2023-04-11T13:32:49.668Z,0.50
2023-04-11T13:34:51.276Z,1.15
2023-04-11T13:36:52.858Z,0.60
2023-04-11T13:38:56.162Z,0.90
2023-04-11T13:40:57.769Z,0.57
2023-04-11T13:42:59.223Z,0.77
2023-04-11T13:45:00.720Z,0.50
2023-04-11T13:47:03.624Z,0.70
2023-04-11T13:49:06.192Z,1.33
2023-04-11T13:51:08.020Z,0.88
2023-04-11T13:53:09.889Z,0.57
2023-04-11T13:55:11.372Z,0.70
2023-04-11T13:57:12.906Z,0.80
2023-04-11T13:59:14.370Z,1.00
2023-04-11T14:01:16.114Z,0.70
2023-04-11T14:03:17.951Z,0.70
2023-04-11T14:05:19.594Z,0.82
2023-04-11T14:07:21.127Z,0.93
2023-04-11T14:09:22.638Z,0.80
2023-04-11T14:11:24.131Z,0.90
2023-04-11T14:13:25.913Z,0.68
2023-04-11T14:15:27.477Z,0.80
2023-04-11T14:17:29.856Z,0.57
2023-04-11T14:19:31.425Z,0.50
2023-04-11T14:21:32.959Z,0.63
2023-04-11T14:23:34.559Z,0.60
2023-04-11T14:25:36.203Z,0.77
2023-04-11T14:27:40.527Z,0.70
2023-04-11T14:29:42.274Z,0.73
2023-04-11T14:31:44.073Z,0.80
2023-04-11T14:33:45.757Z,1.00
2023-04-11T14:35:47.365Z,0.82
2023-04-11T14:37:49.586Z,1.30
2023-04-11T14:39:51.174Z,1.10
2023-04-11T14:41:52.662Z,1.20
2023-04-11T14:43:54.199Z,0.68
2023-04-11T14:45:57.569Z,1.00
2023-04-11T14:47:59.255Z,0.40
2023-04-11T14:50:00.978Z,0.28
2023-04-11T14:52:02.940Z,0.63
2023-04-11T14:54:04.579Z,0.35
2023-04-11T14:56:06.687Z,0.30
2023-04-11T14:58:08.250Z,0.50
2023-04-11T15:00:17.926Z,0.43
2023-04-11T15:02:19.576Z,0.30
2023-04-11T15:04:21.287Z,0.40
2023-04-11T15:06:22.854Z,0.68
2023-04-11T15:08:24.377Z,0.65
2023-04-11T15:10:26.347Z,0.50
2023-04-11T15:12:27.893Z,0.80
2023-04-11T15:14:29.582Z,0.35
2023-04-11T15:16:31.424Z,0.47
2023-04-11T15:18:33.122Z,0.50
2023-04-11T15:20:34.620Z,1.38
2023-04-11T15:22:41.279Z,0.52
2023-04-11T15:24:43.104Z,0.80
2023-04-11T15:26:44.757Z,0.82
2023-04-11T15:28:47.259Z,0.77
2023-04-11T15:30:50.977Z,0.68
2023-04-11T15:32:52.502Z,0.50
2023-04-11T15:34:55.375Z,0.60
2023-04-11T15:36:56.881Z,0.80
2023-04-11T15:38:59.836Z,0.88
2023-04-11T15:41:01.545Z,0.75
2023-04-11T15:43:04.342Z,0.90
2023-04-11T15:45:06.735Z,0.80
2023-04-11T15:47:08.429Z,0.70
2023-04-11T15:49:09.950Z,0.70
2023-04-11T15:51:12.944Z,0.60
2023-04-11T15:53:14.723Z,0.70
2023-04-11T15:55:16.596Z,1.08
2023-04-11T15:57:18.593Z,1.05
2023-04-11T15:59:20.113Z,1.00
2023-04-11T16:01:25.728Z,1.02
2023-04-11T16:03:31.776Z,1.50
2023-04-11T16:05:33.905Z,1.15
2023-04-11T16:07:35.598Z,0.80
2023-04-11T16:09:37.159Z,1.45
2023-04-11T16:11:39.953Z,1.23
2023-04-11T16:13:44.025Z,1.10
2023-04-11T16:15:45.669Z,0.93
2023-04-11T16:17:47.556Z,1.38
2023-04-11T16:19:51.561Z,1.05
2023-04-11T16:21:53.634Z,1.10
2023-04-11T16:23:55.399Z,1.27
2023-04-11T16:25:57.361Z,1.15
2023-04-11T16:27:58.913Z,1.00
2023-04-11T16:30:03.125Z,1.25
2023-04-11T16:32:04.958Z,1.42
2023-04-11T16:34:06.723Z,1.23
2023-04-11T16:36:08.580Z,1.45
2023-04-11T16:38:10.102Z,1.05
2023-04-11T16:40:11.968Z,1.05
2023-04-11T16:42:14.206Z,1.33
2023-04-11T16:44:16.388Z,1.33
2023-04-11T16:46:17.931Z,1.50
2023-04-11T16:48:19.436Z,1.33
2023-04-11T16:50:21.295Z,1.08
2023-04-11T16:52:22.792Z,1.10
2023-04-11T16:54:24.272Z,1.58
2023-04-11T16:56:26.908Z,1.35
2023-04-11T16:58:31.128Z,1.30
2023-04-11T17:00:32.619Z,1.20
2023-04-11T17:02:34.216Z,1.20
2023-04-11T17:04:36.231Z,1.17
2023-04-11T17:06:37.907Z,1.10
2023-04-11T17:08:41.250Z,1.52
2023-04-11T17:10:42.850Z,1.42
2023-04-11T17:12:44.411Z,1.20
2023-04-11T17:14:47.565Z,1.50
2023-04-11T17:16:49.080Z,1.33
2023-04-11T17:18:50.563Z,0.98
2023-04-11T17:20:52.640Z,1.35
2023-04-11T17:22:54.120Z,1.02
2023-04-11T17:24:55.763Z,1.30
2023-04-11T17:26:58.034Z,1.48
2023-04-11T17:28:59.990Z,1.73
2023-04-11T17:31:02.218Z,1.33
2023-04-11T17:33:04.223Z,1.58
2023-04-11T17:35:06.720Z,1.60
2023-04-11T17:37:08.318Z,1.42
2023-04-11T17:39:16.985Z,1.33
2023-04-11T17:41:18.441Z,1.75
2023-04-11T17:43:20.033Z,1.40
2023-04-11T17:45:22.384Z,1.58
2023-04-11T17:47:24.016Z,1.35
2023-04-11T17:49:27.242Z,1.40
2023-04-11T17:51:29.361Z,1.40
2023-04-11T17:53:31.133Z,2.00
2023-04-11T17:55:33.121Z,2.28
2023-04-11T17:57:34.873Z,2.13
2023-04-11T17:59:36.376Z,1.75
2023-04-11T18:01:37.926Z,1.80
2023-04-11T18:03:40.243Z,2.13
2023-04-11T18:05:42.001Z,1.45
2023-04-11T18:07:45.050Z,1.88
2023-04-11T18:09:46.521Z,1.80
2023-04-11T18:11:47.996Z,1.70
2023-04-11T18:13:50.445Z,2.25
2023-04-11T18:15:52.433Z,1.90
2023-04-11T18:17:54.430Z,2.30
2023-04-11T18:19:56.716Z,2.58
2023-04-11T18:21:58.318Z,2.40
2023-04-11T18:23:59.771Z,3.55
2023-04-11T18:26:01.223Z,3.10
2023-04-11T18:28:03.335Z,2.47
2023-04-11T18:30:16.420Z,2.53
2023-04-11T18:32:21.149Z,2.83
2023-04-11T18:34:24.708Z,3.35
2023-04-11T18:36:26.406Z,2.53
2023-04-11T18:38:27.987Z,2.75
2023-04-11T18:40:29.858Z,2.58
2023-04-11T18:42:31.574Z,2.25
2023-04-11T18:44:34.149Z,6.82
2023-04-11T18:46:36.261Z,2.17
2023-04-11T18:48:38.046Z,3.03
2023-04-11T18:50:42.905Z,1.98
2023-04-11T18:52:45.622Z,2.70
2023-04-11T18:54:47.807Z,2.55
2023-04-11T18:56:51.483Z,2.65
2023-04-11T18:58:57.940Z,2.90
2023-04-11T19:01:14.639Z,3.08
2023-04-11T19:03:18.994Z,3.00
2023-04-11T19:05:20.996Z,3.10
2023-04-11T19:07:23.090Z,2.90
2023-04-11T19:09:24.621Z,3.00
2023-04-11T19:11:26.200Z,3.67
2023-04-11T19:13:27.745Z,2.88
2023-04-11T19:15:29.635Z,4.80
2023-04-11T19:17:31.234Z,5.57
2023-04-11T19:19:32.780Z,5.22
2023-04-11T19:21:34.309Z,5.13
2023-04-11T19:23:35.891Z,6.05
2023-04-11T19:25:37.430Z,6.68
2023-04-11T19:27:41.494Z,3.80
2023-04-11T19:29:43.330Z,4.07
2023-04-11T19:31:44.834Z,3.80
2023-04-11T19:33:46.612Z,3.30
2023-04-11T19:35:48.173Z,3.65
2023-04-11T19:37:49.742Z,3.60
2023-04-11T19:39:51.328Z,3.55
2023-04-11T19:41:53.108Z,3.47
2023-04-11T19:43:54.630Z,3.95
2023-04-11T19:45:56.275Z,4.25
2023-04-11T19:47:57.864Z,5.13
2023-04-11T19:50:00.860Z,5.00
2023-04-11T19:52:02.779Z,4.80
2023-04-11T19:54:04.318Z,4.68
2023-04-11T19:56:07.910Z,4.05
2023-04-11T19:58:09.723Z,4.10
2023-04-11T20:00:17.062Z,4.00
2023-04-11T20:02:18.716Z,3.90
2023-04-11T20:04:21.393Z,3.80
2023-04-11T20:06:23.331Z,3.65
2023-04-11T20:08:30.449Z,3.97
2023-04-11T20:10:32.203Z,4.30
2023-04-11T20:12:34.531Z,4.28
2023-04-11T20:14:37.283Z,8.68
2023-04-11T20:16:38.772Z,8.10
2023-04-11T20:18:40.385Z,4.80
2023-04-11T20:20:42.163Z,3.88
2023-04-11T20:22:44.810Z,3.83
2023-04-11T20:24:47.127Z,4.05
2023-04-11T20:26:48.650Z,4.07
2023-04-11T20:28:50.430Z,3.40
2023-04-11T20:30:52.091Z,3.80
2023-04-11T20:32:54.216Z,4.75
2023-04-11T20:34:56.403Z,3.25
2023-04-11T20:37:01.024Z,4.47
2023-04-11T20:39:02.526Z,4.18
2023-04-11T20:41:05.718Z,3.67
2023-04-11T20:43:09.585Z,4.07
2023-04-11T20:45:16.840Z,4.25
2023-04-11T20:47:18.314Z,4.13
2023-04-11T20:49:20.644Z,4.40
2023-04-11T20:51:22.319Z,8.68
2023-04-11T20:53:24.396Z,14.23
2023-04-11T20:55:27.312Z,8.52
2023-04-11T20:57:33.603Z,5.75
2023-04-11T20:59:36.941Z,4.15
2023-04-11T21:01:38.731Z,4.00
2023-04-11T21:03:42.527Z,3.75
2023-04-11T21:05:46.516Z,3.40
2023-04-11T21:07:48.058Z,3.22
2023-04-11T21:09:50.244Z,3.47
2023-04-11T21:11:51.705Z,3.67
2023-04-11T21:13:54.678Z,3.78
2023-04-11T21:15:57.381Z,3.75
2023-04-11T21:17:58.973Z,3.30
2023-04-11T21:20:01.844Z,3.70
2023-04-11T21:22:04.175Z,3.28
2023-04-11T21:24:08.291Z,4.07
2023-04-11T21:26:09.779Z,3.70
2023-04-11T21:28:11.273Z,3.67
2023-04-11T21:30:14.064Z,4.13
2023-04-11T21:32:15.665Z,3.45
2023-04-11T21:34:17.325Z,3.58
2023-04-11T21:36:18.798Z,3.40
2023-04-11T21:38:20.375Z,4.22
2023-04-11T21:40:21.993Z,3.22
2023-04-11T21:42:23.636Z,3.72
2023-04-11T21:44:25.200Z,3.55
2023-04-11T21:46:26.731Z,3.38
2023-04-11T21:48:28.273Z,3.38
2023-04-11T21:50:29.749Z,3.03
2023-04-11T21:52:31.254Z,2.67
2023-04-11T21:54:34.016Z,2.72
2023-04-11T21:56:35.634Z,2.50
2023-04-11T21:58:37.274Z,2.70
2023-04-11T22:00:38.959Z,2.88
2023-04-11T22:02:41.267Z,2.70
2023-04-11T22:05:01.235Z,2.90
2023-04-11T22:07:06.261Z,3.40
2023-04-11T22:09:09.930Z,2.63
2023-04-11T22:11:14.177Z,2.85
2023-04-11T22:13:17.344Z,3.08
2023-04-11T22:15:18.927Z,2.58
2023-04-11T22:17:20.408Z,2.85
2023-04-11T22:19:21.898Z,2.72
2023-04-11T22:21:26.506Z,2.60
2023-04-11T22:23:27.980Z,2.42
2023-04-11T22:25:29.524Z,2.90
2023-04-11T22:27:34.610Z,2.90
2023-04-11T22:29:36.227Z,2.47
2023-04-11T22:31:38.942Z,2.42
2023-04-11T22:33:41.329Z,2.53
2023-04-11T22:35:47.716Z,2.70
2023-04-11T22:37:49.839Z,3.10
2023-04-11T22:39:51.492Z,3.15
2023-04-11T22:41:53.487Z,2.67
2023-04-11T22:43:55.290Z,3.45
2023-04-11T22:46:00.321Z,3.45
2023-04-11T22:48:06.086Z,2.80
2023-04-11T22:50:09.441Z,2.75
2023-04-11T22:52:15.369Z,3.38
2023-04-11T22:54:16.844Z,2.88
2023-04-11T22:56:18.418Z,2.85
2023-04-11T22:58:20.313Z,3.28
2023-04-11T23:00:23.990Z,2.75
2023-04-11T23:02:27.468Z,2.53
2023-04-11T23:04:31.640Z,3.42
2023-04-11T23:06:33.440Z,3.90
2023-04-11T23:08:34.966Z,2.65
2023-04-11T23:10:38.857Z,2.10
2023-04-11T23:12:41.448Z,2.45
2023-04-11T23:14:42.906Z,2.75
2023-04-11T23:16:44.948Z,2.90
2023-04-11T23:18:46.486Z,2.72
2023-04-11T23:20:49.381Z,2.38
2023-04-11T23:22:50.870Z,2.42
2023-04-11T23:24:54.956Z,2.45
2023-04-11T23:26:57.040Z,2.85
2023-04-11T23:28:58.594Z,2.50
2023-04-11T23:31:00.538Z,2.78
2023-04-11T23:33:02.831Z,3.03
2023-04-11T23:35:06.114Z,2.45
2023-04-11T23:37:07.841Z,2.38
2023-04-11T23:39:09.875Z,2.47
2023-04-11T23:41:11.373Z,2.75
2023-04-11T23:43:12.893Z,2.28
2023-04-11T23:45:15.126Z,2.42
2023-04-11T23:47:16.619Z,2.25
2023-04-11T23:49:18.116Z,2.78
2023-04-11T23:51:19.637Z,2.40
2023-04-11T23:53:21.291Z,2.45
2023-04-11T23:55:23.529Z,2.47
2023-04-11T23:57:25.130Z,2.03
2023-04-11T23:59:27.108Z,2.17
